Terminal Aerodrome Forecast
Issued by NWS

Home | Current Version | Previous Version | Text Only | Print | Product List | Glossary On
Versions: 1 2 3 4 5 6 7 8 9 10 11 12 13 14 15 16 17 18 19 20 21 22 23
000
FTUS43 KAPX 201100
TAFPLN
TAF
KPLN 201138Z 2012/2112 00000KT 6SM BR VCSH OVC004
      TEMPO 2012/2014 2SM BR
     FM201400 28003KT 6SM -SHRA OVC004
     FM201700 32004KT P6SM VCSH OVC015
     FM210200 VRB03KT 5SM BR OVC012
     FM210500 00000KT 1SM BR OVC003=

USA.gov is the U.S. government's official web portal to all federal, state and local government web resources and services.